Time;durP1;ratioP1;P1;durP2;ratioP2;P2;SDS_P1;SDS_P2;PMS_P1;PMS_P2;Temp;Humidity;BMP_temperature;BMP_pressure;BME280_temperature;BME280_humidity;BME280_pressure;Samples;Min_cycle;Max_cycle;Signal;HPM_P1;HPM_P2
2023/03/21 00:01:52;;;;;;;35.60;22.47;;;7.60;99.90;;;;;;5033443;28;20688;-47
2023/03/21 00:04:19;;;;;;;37.13;21.37;;;7.60;99.90;;;;;;5033786;28;20280;-46
2023/03/21 00:06:45;;;;;;;38.70;23.10;;;7.70;99.90;;;;;;5034048;28;20799;-46
2023/03/21 00:09:11;;;;;;;36.27;22.43;;;7.60;99.90;;;;;;5033506;28;20975;-46
2023/03/21 00:11:36;;;;;;;38.50;23.00;;;7.60;99.90;;;;;;5033208;28;20417;-46
2023/03/21 00:14:02;;;;;;;41.10;22.10;;;7.60;99.90;;;;;;5033550;28;20213;-47
2023/03/21 00:16:29;;;;;;;38.50;23.93;;;7.60;99.90;;;;;;5033344;28;20187;-46
2023/03/21 00:18:56;;;;;;;39.43;23.07;;;7.60;99.90;;;;;;5033505;28;20190;-46
2023/03/21 00:21:31;;;;;;;36.10;23.20;;;7.70;99.90;;;;;;5033726;28;20417;-46
2023/03/21 00:23:58;;;;;;;37.43;22.50;;;7.60;99.90;;;;;;5033711;28;20731;-47
2023/03/21 00:26:24;;;;;;;42.70;23.40;;;7.60;99.90;;;;;;5033179;28;20433;-48
2023/03/21 00:28:50;;;;;;;41.93;24.93;;;7.60;99.90;;;;;;5033095;28;20956;-45
2023/03/21 00:31:18;;;;;;;45.10;25.63;;;7.60;99.90;;;;;;5033333;28;20454;-48
2023/03/21 00:33:44;;;;;;;41.03;24.60;;;7.60;99.90;;;;;;5031835;28;20207;-47
2023/03/21 00:36:11;;;;;;;42.33;25.57;;;7.60;99.90;;;;;;5032049;28;20491;-48
2023/03/21 00:38:36;;;;;;;46.27;27.93;;;7.60;99.90;;;;;;5033151;28;21027;-47
2023/03/21 00:41:07;;;;;;;47.33;27.17;;;7.60;99.90;;;;;;5037378;28;20503;-47
2023/03/21 00:43:33;;;;;;;44.87;26.77;;;7.60;99.90;;;;;;5036660;28;20237;-47
2023/03/21 00:45:59;;;;;;;45.03;26.20;;;7.60;99.90;;;;;;5037355;28;20832;-47
2023/03/21 00:48:26;;;;;;;50.37;26.80;;;7.70;99.90;;;;;;5037380;28;20596;-47
2023/03/21 00:50:54;;;;;;;44.50;24.57;;;7.60;99.90;;;;;;5037299;28;20663;-46
2023/03/21 00:53:20;;;;;;;48.93;27.00;;;7.60;99.90;;;;;;5037464;28;20460;-46
2023/03/21 00:55:45;;;;;;;52.53;28.20;;;7.60;99.90;;;;;;5037221;28;20426;-47
2023/03/21 00:58:11;;;;;;;49.50;27.87;;;7.70;99.90;;;;;;5037226;28;20668;-47
2023/03/21 01:00:37;;;;;;;46.67;26.40;;;7.60;99.90;;;;;;5037039;28;20190;-47
2023/03/21 01:03:06;;;;;;;53.60;27.80;;;7.70;99.90;;;;;;5036919;28;20186;-46
2023/03/21 01:08:22;;;;;;;55.53;29.00;;;7.70;99.90;;;;;;5036922;28;20449;-46
2023/03/21 01:10:49;;;;;;;49.97;27.77;;;7.70;99.90;;;;;;5036682;28;20984;-47
2023/03/21 01:13:17;;;;;;;55.63;29.90;;;7.70;99.90;;;;;;5036896;28;20460;-47
2023/03/21 01:15:46;;;;;;;52.00;29.87;;;7.60;99.90;;;;;;5036516;28;20421;-47
2023/03/21 01:18:12;;;;;;;48.40;27.70;;;7.70;99.90;;;;;;5036529;28;20463;-47
2023/03/21 01:20:40;;;;;;;52.33;30.10;;;7.70;99.90;;;;;;5036328;28;20417;-47
2023/03/21 01:23:07;;;;;;;55.80;29.47;;;7.70;99.90;;;;;;5036960;28;20763;-47
2023/03/21 01:25:33;;;;;;;57.80;30.17;;;7.70;99.90;;;;;;5036690;28;20478;-47
2023/03/21 01:27:58;;;;;;;55.60;29.53;;;7.70;99.90;;;;;;5036451;28;20407;-46
2023/03/21 01:30:24;;;;;;;54.97;31.10;;;7.70;99.90;;;;;;5036196;28;20538;-46
2023/03/21 01:32:50;;;;;;;56.67;29.57;;;7.70;99.90;;;;;;5036565;28;20248;-47
2023/03/21 01:35:15;;;;;;;60.30;31.60;;;7.70;99.90;;;;;;5036719;28;20637;-47
2023/03/21 01:37:42;;;;;;;58.37;30.27;;;7.70;99.90;;;;;;5036567;28;20182;-46
2023/03/21 01:40:11;;;;;;;60.00;30.93;;;7.70;99.90;;;;;;5036066;28;20250;-47
2023/03/21 01:42:38;;;;;;;57.30;30.10;;;7.70;99.90;;;;;;5036346;28;20440;-47
2023/03/21 01:45:26;;;;;;;56.80;31.30;;;7.70;99.90;;;;;;5035728;28;20488;-47
2023/03/21 01:47:51;;;;;;;62.23;33.50;;;7.70;99.90;;;;;;5036168;28;20428;-47
2023/03/21 01:50:21;;;;;;;58.60;30.70;;;7.70;99.90;;;;;;5036112;28;20503;-46
2023/03/21 01:52:48;;;;;;;67.33;34.30;;;7.70;99.90;;;;;;5036246;28;20265;-47
2023/03/21 01:55:17;;;;;;;63.03;32.23;;;7.70;99.90;;;;;;5035974;28;20421;-46
2023/03/21 01:57:51;;;;;;;60.23;31.53;;;7.70;99.90;;;;;;5035800;28;20432;-47
2023/03/21 02:00:21;;;;;;;60.17;31.57;;;7.70;99.90;;;;;;5036211;28;20500;-47
2023/03/21 02:02:50;;;;;;;61.63;31.90;;;7.70;99.90;;;;;;5036046;28;20413;-47
2023/03/21 02:05:36;;;;;;;59.83;31.53;;;7.70;99.90;;;;;;5035963;28;20413;-46
2023/03/21 02:08:02;;;;;;;61.57;33.20;;;7.70;99.90;;;;;;5036087;28;20409;-47
2023/03/21 02:10:29;;;;;;;54.83;29.60;;;7.80;99.90;;;;;;5035884;28;20788;-46
2023/03/21 02:13:08;;;;;;;57.67;31.20;;;7.80;99.90;;;;;;5035767;28;20221;-46
2023/03/21 02:15:36;;;;;;;60.00;31.60;;;7.80;99.90;;;;;;5035099;28;20923;-47
2023/03/21 02:18:13;;;;;;;59.53;32.50;;;7.80;99.90;;;;;;5035618;28;20836;-47
2023/03/21 02:20:57;;;;;;;62.53;32.43;;;7.80;99.90;;;;;;5035374;28;20421;-46
2023/03/21 02:24:06;;;;;;;65.03;34.10;;;7.80;99.90;;;;;;5035328;28;20492;-46
2023/03/21 02:27:02;;;;;;;60.83;32.73;;;7.80;99.90;;;;;;5035596;28;20420;-47
2023/03/21 02:29:55;;;;;;;64.50;32.93;;;7.80;99.90;;;;;;5035362;28;20559;-47
2023/03/21 02:32:48;;;;;;;60.07;32.60;;;7.80;99.90;;;;;;5035391;28;20468;-46
2023/03/21 02:35:37;;;;;;;63.23;32.80;;;7.90;99.90;;;;;;5035149;28;20414;-46
2023/03/21 02:38:12;;;;;;;58.50;31.70;;;7.90;99.90;;;;;;5035598;28;20467;-47
2023/03/21 02:40:44;;;;;;;63.10;33.13;;;7.90;99.90;;;;;;5034845;28;20405;-46
2023/03/21 02:43:21;;;;;;;64.27;35.63;;;7.80;99.90;;;;;;5034717;28;20474;-46
2023/03/21 02:46:04;;;;;;;64.90;33.97;;;7.80;99.90;;;;;;5035308;28;20413;-47
2023/03/21 02:48:56;;;;;;;64.00;32.20;;;7.90;99.90;;;;;;5035091;28;20418;-46
2023/03/21 02:51:24;;;;;;;66.43;34.27;;;7.90;99.90;;;;;;5035307;28;20417;-46
2023/03/21 02:54:08;;;;;;;65.37;35.00;;;7.90;99.90;;;;;;5034921;28;20456;-47
2023/03/21 02:56:35;;;;;;;65.70;33.50;;;7.90;99.90;;;;;;5034931;28;20766;-46
2023/03/21 02:59:04;;;;;;;63.13;33.70;;;7.90;99.90;;;;;;5034967;28;20417;-47
2023/03/21 03:01:31;;;;;;;69.63;36.40;;;7.90;99.90;;;;;;5034545;28;20420;-46
2023/03/21 03:03:56;;;;;;;70.10;36.47;;;7.90;99.90;;;;;;5034612;28;20425;-47
2023/03/21 03:06:28;;;;;;;69.63;35.10;;;7.90;99.90;;;;;;5034647;28;20431;-46
2023/03/21 03:09:06;;;;;;;65.20;36.20;;;7.90;99.90;;;;;;5034940;28;20273;-47
2023/03/21 03:11:42;;;;;;;70.63;34.47;;;8.00;99.90;;;;;;5034354;28;20455;-46
2023/03/21 03:14:19;;;;;;;71.33;35.93;;;7.90;99.90;;;;;;5034507;28;20460;-47
2023/03/21 03:17:06;;;;;;;74.17;37.10;;;7.90;99.90;;;;;;5034388;28;20412;-47
2023/03/21 03:19:39;;;;;;;70.43;35.50;;;8.00;99.90;;;;;;5034107;28;20897;-46
2023/03/21 03:22:15;;;;;;;76.50;36.50;;;7.90;99.90;;;;;;5034487;28;20435;-46
2023/03/21 03:25:02;;;;;;;67.30;35.37;;;8.00;99.90;;;;;;5034047;28;20404;-47
2023/03/21 03:27:36;;;;;;;67.00;35.63;;;7.90;99.90;;;;;;5034300;28;20512;-48
2023/03/21 03:30:04;;;;;;;64.60;34.40;;;7.90;99.90;;;;;;5034408;28;20417;-47
2023/03/21 03:32:54;;;;;;;73.63;35.20;;;7.90;99.90;;;;;;5033947;28;20741;-47
2023/03/21 03:35:21;;;;;;;68.67;33.87;;;7.80;99.90;;;;;;5033865;28;20417;-47
2023/03/21 03:37:52;;;;;;;67.10;35.67;;;7.90;99.90;;;;;;5034036;28;20413;-46
2023/03/21 03:40:40;;;;;;;67.93;35.47;;;7.90;99.90;;;;;;5032554;28;20413;-47
2023/03/21 03:43:19;;;;;;;72.23;35.40;;;8.00;99.90;;;;;;5033615;28;20469;-46
2023/03/21 03:45:53;;;;;;;75.50;36.60;;;7.90;99.90;;;;;;5034129;28;20483;-47
2023/03/21 03:48:25;;;;;;;66.20;34.20;;;8.00;99.90;;;;;;5034210;28;20436;-46
2023/03/21 03:51:00;;;;;;;66.37;34.47;;;8.00;99.90;;;;;;5034056;28;20417;-46
2023/03/21 03:53:31;;;;;;;77.20;36.57;;;7.90;99.90;;;;;;5033880;28;20460;-46
2023/03/21 03:55:59;;;;;;;70.60;36.97;;;8.00;99.90;;;;;;5033582;28;20464;-47
2023/03/21 03:58:26;;;;;;;72.30;35.90;;;8.00;99.90;;;;;;5034035;28;20424;-47
2023/03/21 04:00:53;;;;;;;69.80;36.70;;;8.00;99.90;;;;;;5033746;28;20417;-46
2023/03/21 04:03:19;;;;;;;68.00;34.53;;;8.00;99.90;;;;;;5033734;28;20425;-47
2023/03/21 04:05:45;;;;;;;67.37;35.00;;;8.10;99.90;;;;;;5033659;28;20451;-46
2023/03/21 04:08:12;;;;;;;67.83;35.20;;;8.00;99.90;;;;;;5033473;28;20929;-46
2023/03/21 04:10:39;;;;;;;69.67;35.47;;;8.00;99.90;;;;;;5033614;28;20194;-46
2023/03/21 04:13:04;;;;;;;68.40;35.60;;;8.10;99.90;;;;;;5032991;28;20516;-46
2023/03/21 04:15:30;;;;;;;70.13;35.77;;;8.10;99.90;;;;;;5033158;28;20564;-46
2023/03/21 04:17:56;;;;;;;79.60;37.23;;;8.10;99.90;;;;;;5033360;28;20182;-46
2023/03/21 04:20:22;;;;;;;69.57;35.97;;;8.00;99.90;;;;;;5033474;28;20518;-47
2023/03/21 04:22:47;;;;;;;68.90;35.80;;;8.00;99.90;;;;;;5033378;28;20287;-47
2023/03/21 04:25:13;;;;;;;73.93;37.07;;;8.00;99.90;;;;;;5033263;28;20181;-47
2023/03/21 04:27:39;;;;;;;72.83;37.73;;;8.10;99.90;;;;;;5033156;28;20518;-46
2023/03/21 04:30:06;;;;;;;68.20;35.47;;;8.10;99.90;;;;;;5033254;28;20190;-47
2023/03/21 04:32:32;;;;;;;70.33;36.27;;;8.10;99.90;;;;;;5033143;28;20285;-46
2023/03/21 04:34:59;;;;;;;66.23;36.23;;;8.10;99.90;;;;;;5033376;28;20465;-46
2023/03/21 04:37:26;;;;;;;62.67;34.57;;;8.10;99.90;;;;;;5033037;28;20425;-47
2023/03/21 04:39:52;;;;;;;70.80;35.67;;;8.00;99.90;;;;;;5033124;28;20420;-46
2023/03/21 04:42:18;;;;;;;70.17;36.33;;;8.10;99.90;;;;;;5033382;28;20421;-46
2023/03/21 04:44:45;;;;;;;68.73;34.70;;;8.10;99.90;;;;;;5032970;28;20672;-46
2023/03/21 04:47:12;;;;;;;66.87;35.20;;;8.10;99.90;;;;;;5033252;28;20265;-46
2023/03/21 04:49:38;;;;;;;70.03;37.17;;;8.20;99.90;;;;;;5033299;28;20416;-47
2023/03/21 04:52:04;;;;;;;68.77;36.90;;;8.20;99.90;;;;;;5033024;28;20417;-47
2023/03/21 04:54:31;;;;;;;69.07;35.23;;;8.10;99.90;;;;;;5033202;28;20643;-47
2023/03/21 04:56:57;;;;;;;68.77;36.80;;;8.10;99.90;;;;;;5033138;28;20953;-46
2023/03/21 04:59:23;;;;;;;69.23;36.23;;;8.10;99.90;;;;;;5033155;28;20421;-46
2023/03/21 05:01:49;;;;;;;69.90;35.70;;;8.00;99.90;;;;;;5032981;28;20439;-47
2023/03/21 05:04:17;;;;;;;69.00;35.90;;;8.10;99.90;;;;;;5033067;28;20201;-46
2023/03/21 05:06:45;;;;;;;76.17;37.77;;;8.10;99.90;;;;;;5033414;28;20417;-46
2023/03/21 05:09:11;;;;;;;73.00;37.67;;;8.10;99.90;;;;;;5033078;28;20493;-46
2023/03/21 05:11:39;;;;;;;72.10;35.87;;;8.10;99.90;;;;;;5033358;28;20417;-46
2023/03/21 05:14:07;;;;;;;67.83;35.60;;;8.10;99.90;;;;;;5032741;28;20960;-47
2023/03/21 05:16:35;;;;;;;72.27;38.37;;;8.20;99.90;;;;;;5032982;28;20822;-46
2023/03/21 05:19:04;;;;;;;71.57;38.10;;;8.10;99.90;;;;;;5032767;28;20519;-47
2023/03/21 05:21:40;;;;;;;70.63;38.17;;;8.10;99.90;;;;;;5032626;28;20437;-46
2023/03/21 05:24:13;;;;;;;67.73;36.53;;;8.10;99.90;;;;;;5033159;28;20458;-46
2023/03/21 05:26:40;;;;;;;66.60;36.37;;;8.20;99.90;;;;;;5035650;28;20909;-46
2023/03/21 05:29:07;;;;;;;64.00;35.67;;;8.20;99.90;;;;;;5036379;28;21111;-47
2023/03/21 05:31:32;;;;;;;68.33;36.43;;;8.20;99.90;;;;;;5036161;28;20433;-46
2023/03/21 05:33:58;;;;;;;64.10;36.40;;;8.20;99.90;;;;;;5036621;28;20468;-47
2023/03/21 05:36:24;;;;;;;73.23;38.40;;;8.20;99.90;;;;;;5036006;28;20276;-46
2023/03/21 05:38:50;;;;;;;66.43;37.50;;;8.20;99.90;;;;;;5036120;28;20491;-46
2023/03/21 05:41:16;;;;;;;78.57;41.40;;;8.20;99.90;;;;;;5036542;28;20186;-46
2023/03/21 05:43:42;;;;;;;76.93;40.80;;;8.20;99.90;;;;;;5036102;28;20248;-46
2023/03/21 05:46:09;;;;;;;77.27;40.53;;;8.30;99.90;;;;;;5036162;28;20421;-46
2023/03/21 05:48:35;;;;;;;76.60;40.07;;;8.30;99.90;;;;;;5035945;28;20182;-46
2023/03/21 05:51:01;;;;;;;76.57;40.50;;;8.30;99.90;;;;;;5036324;28;20467;-46
2023/03/21 05:53:27;;;;;;;76.37;40.90;;;8.40;99.90;;;;;;5036088;28;20236;-46
2023/03/21 05:55:52;;;;;;;71.90;40.07;;;8.40;99.90;;;;;;5035841;28;20460;-46
2023/03/21 05:58:18;;;;;;;77.73;41.47;;;8.40;99.90;;;;;;5036129;28;20615;-46
2023/03/21 06:00:44;;;;;;;74.73;39.40;;;8.40;99.90;;;;;;5035948;28;20193;-46
2023/03/21 06:03:09;;;;;;;77.23;39.20;;;8.40;99.90;;;;;;5035586;28;20190;-46
2023/03/21 06:05:35;;;;;;;74.87;39.67;;;8.40;99.90;;;;;;5035595;28;20477;-46
2023/03/21 06:08:01;;;;;;;71.20;39.97;;;8.50;99.90;;;;;;5036241;28;20194;-46
2023/03/21 06:10:27;;;;;;;77.70;39.73;;;8.40;99.90;;;;;;5035749;28;20263;-46
2023/03/21 06:12:52;;;;;;;70.63;37.47;;;8.50;99.90;;;;;;5035637;28;20193;-47
2023/03/21 06:15:18;;;;;;;72.73;39.00;;;8.50;99.90;;;;;;5035898;28;20185;-46
2023/03/21 06:17:43;;;;;;;71.70;40.17;;;8.50;99.90;;;;;;5035638;28;20177;-46
2023/03/21 06:20:10;;;;;;;67.80;38.53;;;8.60;99.90;;;;;;5035795;28;20213;-46
2023/03/21 06:22:36;;;;;;;69.53;39.30;;;8.60;99.90;;;;;;5035621;28;20218;-46
2023/03/21 06:25:02;;;;;;;71.80;37.73;;;8.60;99.90;;;;;;5035493;28;20831;-47
2023/03/21 06:27:27;;;;;;;64.80;36.90;;;8.60;99.90;;;;;;5035830;28;20255;-46
2023/03/21 06:29:53;;;;;;;69.00;38.67;;;8.50;99.90;;;;;;5035218;28;20885;-46
2023/03/21 06:32:19;;;;;;;63.17;36.40;;;8.50;99.90;;;;;;5035145;28;20549;-46
2023/03/21 06:34:44;;;;;;;66.00;36.90;;;8.60;99.90;;;;;;5035039;28;20693;-47
2023/03/21 06:37:10;;;;;;;66.93;37.80;;;8.60;99.90;;;;;;5034176;28;20185;-46
2023/03/21 06:39:35;;;;;;;65.97;37.13;;;8.60;99.90;;;;;;5035135;28;20221;-47
2023/03/21 06:42:01;;;;;;;74.87;39.50;;;8.60;99.90;;;;;;5035043;28;20627;-46
2023/03/21 06:44:27;;;;;;;73.40;39.30;;;8.70;99.90;;;;;;5035190;28;20636;-46
2023/03/21 06:46:53;;;;;;;79.90;39.43;;;8.60;99.90;;;;;;5034686;28;20210;-47
2023/03/21 06:49:19;;;;;;;75.37;39.70;;;8.60;99.90;;;;;;5034908;28;20556;-47
2023/03/21 06:51:45;;;;;;;80.17;40.27;;;8.70;99.90;;;;;;5035013;28;20516;-47
2023/03/21 06:54:12;;;;;;;78.87;40.03;;;8.70;99.90;;;;;;5034617;28;20611;-47
2023/03/21 06:56:38;;;;;;;74.73;39.40;;;8.80;99.90;;;;;;5035151;28;20189;-47
2023/03/21 06:59:03;;;;;;;68.20;38.20;;;8.80;99.90;;;;;;5034487;28;20406;-47
2023/03/21 07:01:29;;;;;;;73.10;38.47;;;8.90;99.90;;;;;;5034417;28;20264;-47
2023/03/21 07:03:57;;;;;;;70.27;38.80;;;8.80;99.90;;;;;;5034475;28;20190;-47
2023/03/21 07:06:25;;;;;;;70.23;38.83;;;8.80;99.90;;;;;;5034616;28;20551;-47
2023/03/21 07:08:51;;;;;;;82.10;41.27;;;8.80;99.90;;;;;;5034292;28;20432;-48
2023/03/21 07:11:17;;;;;;;68.33;38.80;;;8.80;99.90;;;;;;5034314;28;20479;-47
2023/03/21 07:13:43;;;;;;;75.43;40.13;;;8.90;99.90;;;;;;5034513;28;20500;-46
2023/03/21 07:16:09;;;;;;;78.03;40.97;;;8.90;99.90;;;;;;5034242;28;20214;-48
2023/03/21 07:18:35;;;;;;;68.53;38.03;;;8.90;99.90;;;;;;5034459;28;20178;-46
2023/03/21 07:21:01;;;;;;;68.97;39.10;;;8.90;99.90;;;;;;5032886;28;20421;-46
2023/03/21 07:23:27;;;;;;;70.07;39.30;;;9.00;99.90;;;;;;5034308;28;20507;-47
2023/03/21 07:25:54;;;;;;;73.10;39.87;;;9.00;99.90;;;;;;5034657;28;20189;-46
2023/03/21 07:28:21;;;;;;;67.00;38.10;;;9.00;99.90;;;;;;5034097;28;20908;-47
2023/03/21 07:30:53;;;;;;;65.73;39.67;;;9.00;99.90;;;;;;5034219;28;20531;-47
2023/03/21 07:33:18;;;;;;;71.43;40.97;;;9.10;99.90;;;;;;5034391;28;20465;-47
2023/03/21 07:35:44;;;;;;;67.87;40.10;;;9.00;99.90;;;;;;5034081;28;20753;-47
2023/03/21 07:38:10;;;;;;;75.73;39.97;;;9.00;99.90;;;;;;5034157;28;20186;-47
2023/03/21 07:40:35;;;;;;;61.77;38.97;;;9.10;99.90;;;;;;5034062;28;20204;-47
2023/03/21 07:43:01;;;;;;;71.50;39.40;;;9.10;99.90;;;;;;5033631;28;20641;-47
2023/03/21 07:45:26;;;;;;;69.00;38.77;;;9.10;99.90;;;;;;5033654;28;20179;-47
2023/03/21 07:47:53;;;;;;;63.87;37.40;;;9.10;99.90;;;;;;5033770;28;20348;-47
2023/03/21 07:50:19;;;;;;;66.27;40.47;;;9.20;99.90;;;;;;5034074;28;20270;-47
2023/03/21 07:52:46;;;;;;;58.70;34.80;;;9.20;99.90;;;;;;5034299;28;20424;-47
2023/03/21 07:55:12;;;;;;;66.13;38.47;;;9.20;99.90;;;;;;5033695;28;20843;-47
2023/03/21 07:57:37;;;;;;;67.90;38.07;;;9.20;99.90;;;;;;5033844;28;20508;-47
2023/03/21 08:00:05;;;;;;;69.13;37.73;;;9.30;99.90;;;;;;5033954;28;20508;-47
2023/03/21 08:02:31;;;;;;;72.77;36.60;;;9.20;99.90;;;;;;5033929;28;20616;-47
2023/03/21 08:04:56;;;;;;;70.97;38.10;;;9.30;99.90;;;;;;5033106;28;20452;-47
2023/03/21 08:07:22;;;;;;;66.30;35.23;;;9.30;99.90;;;;;;5033613;28;20190;-47
2023/03/21 08:09:48;;;;;;;71.47;38.47;;;9.30;99.90;;;;;;5033336;28;20178;-47
2023/03/21 08:12:13;;;;;;;76.57;40.33;;;9.20;99.90;;;;;;5033564;28;20182;-48
2023/03/21 08:14:39;;;;;;;74.00;39.27;;;9.20;99.90;;;;;;5033879;28;20316;-47
2023/03/21 08:17:05;;;;;;;74.40;36.97;;;9.10;99.90;;;;;;5033855;28;20197;-47
2023/03/21 08:19:31;;;;;;;77.50;41.00;;;9.20;99.90;;;;;;5033549;28;20189;-47
2023/03/21 08:22:00;;;;;;;75.90;38.30;;;9.30;99.90;;;;;;5033810;28;20417;-47
2023/03/21 08:24:27;;;;;;;76.00;38.33;;;9.30;99.90;;;;;;5033712;28;20498;-47
2023/03/21 08:26:53;;;;;;;82.30;39.23;;;9.30;99.90;;;;;;5033656;28;20417;-48
2023/03/21 08:29:20;;;;;;;84.00;41.97;;;9.40;99.90;;;;;;5033083;28;20770;-47
2023/03/21 08:31:46;;;;;;;81.17;41.73;;;9.40;99.90;;;;;;5033317;28;20473;-47
2023/03/21 08:34:12;;;;;;;75.30;41.20;;;9.30;99.90;;;;;;5033379;28;21023;-48
2023/03/21 08:36:38;;;;;;;75.70;39.70;;;9.30;99.90;;;;;;5033517;28;20228;-47
2023/03/21 08:39:04;;;;;;;79.20;39.93;;;9.40;99.90;;;;;;5033241;28;20416;-47
2023/03/21 08:41:37;;;;;;;74.70;39.47;;;9.40;99.90;;;;;;5033412;28;20189;-47
2023/03/21 08:44:05;;;;;;;77.87;39.17;;;9.40;99.90;;;;;;5033285;28;20478;-47
2023/03/21 08:46:31;;;;;;;68.80;37.57;;;9.50;99.90;;;;;;5032896;28;20443;-47
2023/03/21 08:48:56;;;;;;;73.50;38.43;;;9.50;99.90;;;;;;5033717;28;20513;-47
2023/03/21 08:51:22;;;;;;;69.50;37.37;;;9.50;99.90;;;;;;5033437;28;20502;-48
2023/03/21 08:53:50;;;;;;;69.10;36.33;;;9.50;99.90;;;;;;5032955;28;20674;-47
2023/03/21 08:56:16;;;;;;;69.37;36.50;;;9.60;99.90;;;;;;5033033;28;20216;-47
2023/03/21 08:58:43;;;;;;;70.40;36.70;;;9.60;99.90;;;;;;5033024;28;20431;-46
2023/03/21 09:01:10;;;;;;;67.00;36.87;;;9.60;99.90;;;;;;5035452;28;20428;-48
2023/03/21 09:03:37;;;;;;;65.60;35.43;;;9.60;99.90;;;;;;5036839;28;20447;-47
2023/03/21 09:06:03;;;;;;;67.33;35.43;;;9.60;99.90;;;;;;5036894;28;20982;-48
2023/03/21 09:08:29;;;;;;;62.97;35.70;;;9.70;99.90;;;;;;5036982;28;20460;-47
2023/03/21 09:10:55;;;;;;;68.67;35.60;;;9.70;99.90;;;;;;5036797;28;20447;-47
2023/03/21 09:13:22;;;;;;;65.60;35.93;;;9.70;99.90;;;;;;5036540;28;20688;-47
2023/03/21 09:15:48;;;;;;;69.07;36.70;;;9.70;99.90;;;;;;5036730;28;20421;-47
2023/03/21 09:18:21;;;;;;;67.70;34.60;;;9.70;99.90;;;;;;5036719;28;20466;-47
2023/03/21 09:20:47;;;;;;;67.23;34.17;;;9.80;99.90;;;;;;5036972;28;20452;-47
2023/03/21 09:23:14;;;;;;;73.60;36.27;;;9.80;99.90;;;;;;5036682;28;20413;-46
2023/03/21 09:25:41;;;;;;;73.10;34.77;;;9.80;99.90;;;;;;5036842;28;20445;-47
2023/03/21 09:28:07;;;;;;;70.97;35.47;;;9.90;99.90;;;;;;5036778;28;20425;-47
2023/03/21 09:30:34;;;;;;;68.33;35.50;;;9.90;99.90;;;;;;5036685;28;20506;-48
2023/03/21 09:33:02;;;;;;;69.70;35.27;;;9.90;99.90;;;;;;5036506;28;20424;-47
2023/03/21 09:35:28;;;;;;;70.33;33.57;;;10.00;99.90;;;;;;5036555;28;20425;-47
2023/03/21 09:37:57;;;;;;;71.27;35.63;;;10.00;99.90;;;;;;5036241;28;20416;-47
2023/03/21 09:40:53;;;;;;;79.30;34.93;;;10.00;99.90;;;;;;5036281;28;20913;-48
2023/03/21 09:43:37;;;;;;;76.90;36.77;;;10.10;99.90;;;;;;5036307;28;20783;-48
2023/03/21 09:46:15;;;;;;;69.40;35.80;;;10.20;99.90;;;;;;5036472;28;20762;-48
2023/03/21 09:48:40;;;;;;;73.27;35.80;;;10.20;99.90;;;;;;5036257;28;20440;-48
2023/03/21 09:51:12;;;;;;;74.03;34.93;;;10.20;99.90;;;;;;5036034;28;20885;-48
2023/03/21 09:53:41;;;;;;;65.80;32.67;;;10.20;99.90;;;;;;5036193;28;20229;-48
2023/03/21 09:56:11;;;;;;;62.53;32.87;;;10.30;99.90;;;;;;5036109;28;21085;-48
2023/03/21 09:58:53;;;;;;;70.43;33.67;;;10.30;99.90;;;;;;5036169;28;20409;-47
2023/03/21 10:01:40;;;;;;;51.97;30.27;;;10.30;99.90;;;;;;5036330;28;20408;-49
2023/03/21 10:04:09;;;;;;;54.30;30.53;;;10.30;99.90;;;;;;5036169;28;20409;-48
2023/03/21 10:06:39;;;;;;;55.13;30.93;;;10.30;99.90;;;;;;5035840;28;20551;-47
2023/03/21 10:09:08;;;;;;;51.53;30.70;;;10.20;99.90;;;;;;5035932;28;20421;-47
2023/03/21 10:12:08;;;;;;;59.83;31.07;;;10.30;99.90;;;;;;5034176;28;20508;-48
2023/03/21 10:14:52;;;;;;;54.37;29.90;;;10.30;99.90;;;;;;5019666;28;20595;-48
2023/03/21 10:17:32;;;;;;;56.90;30.50;;;10.40;99.90;;;;;;5035988;28;20868;-48
2023/03/21 10:20:20;;;;;;;50.53;28.10;;;10.50;99.90;;;;;;5035807;28;20486;-47
2023/03/21 10:22:48;;;;;;;47.37;27.60;;;10.50;99.90;;;;;;5035632;28;20492;-47
2023/03/21 10:25:30;;;;;;;48.83;27.70;;;10.50;99.90;;;;;;5035897;28;20520;-47
2023/03/21 10:27:56;;;;;;;47.77;26.83;;;10.40;99.90;;;;;;5035006;28;20925;-47
2023/03/21 10:30:39;;;;;;;48.30;27.73;;;10.40;99.90;;;;;;5035231;28;20571;-47
2023/03/21 10:33:08;;;;;;;47.30;27.23;;;10.40;99.90;;;;;;5034860;28;20806;-47
2023/03/21 10:35:35;;;;;;;45.20;27.13;;;10.50;99.90;;;;;;5035094;28;20432;-47
2023/03/21 10:38:02;;;;;;;49.67;29.42;;;10.40;99.90;;;;;;5034048;28;20401;-48
2023/03/21 10:40:28;;;;;;;46.97;28.10;;;10.40;99.90;;;;;;5032079;28;20214;-49
2023/03/21 10:42:56;;;;;;;46.73;26.10;;;10.50;99.90;;;;;;5033159;28;20983;-48
2023/03/21 10:45:22;;;;;;;45.63;24.47;;;10.50;99.90;;;;;;5035114;28;20178;-46
2023/03/21 10:47:50;;;;;;;42.67;24.37;;;10.40;99.90;;;;;;5035018;28;20421;-48
2023/03/21 10:50:19;;;;;;;43.57;24.20;;;10.40;99.90;;;;;;5035264;28;20751;-47
2023/03/21 10:52:51;;;;;;;45.65;25.77;;;10.40;99.90;;;;;;5034807;28;20405;-49
2023/03/21 10:55:24;;;;;;;50.00;27.27;;;10.40;99.90;;;;;;5035232;28;20658;-48
2023/03/21 10:58:07;;;;;;;48.57;26.37;;;10.40;99.90;;;;;;5035331;28;20425;-48
2023/03/21 11:00:43;;;;;;;49.30;27.03;;;10.40;99.90;;;;;;5034967;28;20568;-48
2023/03/21 11:03:35;;;;;;;44.90;26.10;;;10.40;99.90;;;;;;5034900;28;20420;-49
2023/03/21 11:06:10;;;;;;;47.57;28.00;;;10.30;99.90;;;;;;5034613;28;20542;-48
2023/03/21 11:08:45;;;;;;;45.30;25.70;;;10.20;99.90;;;;;;5034852;28;20418;-49
2023/03/21 11:11:28;;;;;;;43.00;25.07;;;10.20;99.90;;;;;;5034986;28;20408;-48
2023/03/21 11:13:59;;;;;;;55.67;27.23;;;10.30;99.90;;;;;;5034806;28;20650;-49
2023/03/21 11:16:34;;;;;;;49.80;27.57;;;10.30;99.90;;;;;;5035117;28;20499;-48
2023/03/21 11:19:03;;;;;;;51.90;28.43;;;10.30;99.90;;;;;;5034469;28;20805;-48
2023/03/21 11:21:35;;;;;;;56.03;29.57;;;10.30;99.90;;;;;;5034468;28;20432;-47
2023/03/21 11:24:02;;;;;;;53.27;28.83;;;10.30;99.90;;;;;;5033968;28;20443;-47
2023/03/21 11:26:36;;;;;;;58.90;29.87;;;10.40;99.90;;;;;;5034154;28;20463;-47
2023/03/21 11:29:31;;;;;;;54.80;30.07;;;10.40;99.90;;;;;;5034149;28;20409;-47
2023/03/21 11:32:32;;;;;;;54.90;28.53;;;10.50;99.90;;;;;;5034572;28;20839;-46
2023/03/21 11:35:05;;;;;;;58.10;28.60;;;10.60;99.90;;;;;;5011904;28;20550;-47
2023/03/21 11:37:36;;;;;;;54.40;26.60;;;10.50;99.90;;;;;;5033817;28;20497;-47
2023/03/21 11:40:20;;;;;;;46.90;27.27;;;10.60;99.90;;;;;;5033927;28;20439;-49
2023/03/21 11:42:50;;;;;;;48.60;26.73;;;10.60;99.90;;;;;;5033874;28;20420;-47
2023/03/21 11:45:27;;;;;;;47.00;27.33;;;10.60;99.90;;;;;;5034203;28;20837;-47
2023/03/21 11:47:57;;;;;;;45.83;26.07;;;10.70;99.90;;;;;;5033972;28;20960;-47
2023/03/21 11:50:38;;;;;;;49.10;26.30;;;10.60;99.90;;;;;;5033763;28;20443;-48
2023/03/21 11:53:16;;;;;;;40.90;24.80;;;10.70;99.90;;;;;;5034091;28;20425;-48
2023/03/21 11:55:47;;;;;;;49.87;25.57;;;10.60;99.90;;;;;;5033674;28;20905;-47
2023/03/21 11:58:32;;;;;;;47.57;27.57;;;10.40;99.90;;;;;;5033757;28;20958;-48
2023/03/21 12:01:23;;;;;;;44.17;26.80;;;10.40;99.90;;;;;;5033663;28;20432;-47
2023/03/21 12:04:30;;;;;;;41.63;26.40;;;10.40;99.90;;;;;;5033966;28;20415;-47
2023/03/21 12:07:04;;;;;;;47.67;27.00;;;10.60;99.90;;;;;;5033312;28;20801;-49
2023/03/21 12:09:39;;;;;;;41.00;25.30;;;10.80;99.90;;;;;;5033233;28;20410;-49
2023/03/21 12:12:31;;;;;;;44.27;26.07;;;11.00;99.90;;;;;;5033566;28;20459;-49
2023/03/21 12:15:02;;;;;;;35.60;21.33;;;11.20;99.90;;;;;;5033802;28;20514;-49
2023/03/21 12:17:42;;;;;;;36.43;22.50;;;11.30;99.90;;;;;;5033796;28;20405;-49
2023/03/21 12:20:17;;;;;;;38.70;23.20;;;11.20;1.00;;;;;;5033648;28;20417;-49
2023/03/21 12:23:01;;;;;;;40.67;25.15;;;11.10;1.00;;;;;;5032487;28;20831;-49
2023/03/21 12:25:31;;;;;;;36.33;23.90;;;11.00;1.00;;;;;;5033519;28;20240;-48
2023/03/21 12:28:25;;;;;;;34.43;21.93;;;11.00;30.00;;;;;;5033086;28;20425;-48
2023/03/21 12:31:11;;;;;;;28.63;18.87;;;11.00;46.10;;;;;;5033290;28;20452;-48
2023/03/21 12:33:56;;;;;;;30.43;20.70;;;11.00;1.00;;;;;;5033553;28;20502;-48
2023/03/21 12:36:29;;;;;;;30.60;20.07;;;10.80;1.00;;;;;;5036781;28;20495;-48
2023/03/21 12:39:13;;;;;;;29.90;20.40;;;10.80;1.00;;;;;;5037872;28;20409;-48
2023/03/21 12:41:42;;;;;;;30.50;19.30;;;10.70;2.80;;;;;;5037573;28;20421;-48
2023/03/21 12:44:15;;;;;;;30.00;19.17;;;10.60;37.20;;;;;;5037438;28;20484;-48
2023/03/21 12:46:45;;;;;;;28.13;18.43;;;10.70;61.90;;;;;;5037175;28;20427;-48
2023/03/21 12:49:33;;;;;;;31.00;19.80;;;10.60;66.40;;;;;;5037700;28;20408;-48
2023/03/21 12:52:06;;;;;;;23.70;16.90;;;10.60;73.40;;;;;;5037322;28;20420;-48
2023/03/21 12:54:43;;;;;;;31.03;18.10;;;10.60;62.70;;;;;;5037105;28;20448;-48
2023/03/21 12:57:29;;;;;;;28.00;18.10;;;10.60;71.00;;;;;;5037287;28;20420;-48